CDT,Max TemperatureF,Mean TemperatureF,Min TemperatureF,Max Dew PointF,MeanDew PointF,Min DewpointF,Max Humidity, Mean Humidity, Min Humidity, Max Sea Level PressureIn, Mean Sea Level PressureIn, Min Sea Level PressureIn, Max VisibilityMiles, Mean VisibilityMiles, Min VisibilityMiles, Max Wind SpeedMPH, Mean Wind SpeedMPH, Max Gust SpeedMPH,PrecipitationIn, CloudCover, Events, WindDirDegrees
2012-8-1,91,76,61,63,59,56,90,58,31,29.98,29.93,29.90,10,10,10,12,6,,0.00,0,,85
2012-8-2,97,80,64,69,62,55,93,55,29,29.90,29.82,29.76,10,10,10,14,8,,0.00,0,,150
2012-8-3,93,79,65,70,67,64,100,70,37,29.88,29.84,29.81,10,10,4,12,7,,0.00,0,,139
2012-8-4,95,82,70,75,70,65,100,73,49,29.90,29.85,29.79,10,9,3,29,9,37,0.00,2,Rain,206
2012-8-5,84,76,68,72,65,55,100,76,38,30.15,30.03,29.88,10,8,0,17,10,,0.74,3,Fog-Rain-Thunderstorm,335
2012-8-6,86,72,59,60,55,53,87,56,33,30.17,30.09,30.00,10,10,10,7,4,,0.00,0,,95
2012-8-7,93,76,59,63,56,52,81,49,28,30.00,29.96,29.91,10,10,10,10,6,,0.00,0,,225
2012-8-8,86,75,66,70,65,61,100,73,51,30.00,29.94,29.91,10,10,4,17,6,,0.02,1,Rain,2
2012-8-9,83,72,62,73,66,63,100,91,51,29.97,29.87,29.78,10,6,1,22,7,,0.29,4,Rain-Thunderstorm,43
2012-8-10,77,68,59,63,56,47,100,71,37,29.99,29.91,29.83,10,10,8,20,13,,0.00,4,,346
2012-8-11,77,66,55,52,47,44,72,51,30,30.03,30.00,29.97,10,10,10,16,8,,0.00,0,,344
2012-8-12,77,66,56,61,54,48,90,64,38,30.04,30.00,29.95,10,10,10,9,5,,0.00,1,,169
2012-8-13,72,66,61,65,62,60,100,93,68,30.02,29.94,29.90,10,7,2,14,9,,0.20,7,Rain,89
2012-8-14,81,68,57,63,59,53,100,87,40,30.01,29.97,29.91,10,4,0,10,5,,0.00,5,Fog,302
2012-8-15,86,72,59,59,58,53,93,62,33,29.99,29.94,29.88,10,10,10,15,7,,0.00,0,Rain,222
2012-8-16,72,66,61,67,64,57,100,92,65,30.00,29.91,29.80,10,6,1,29,9,36,1.67,5,Rain-Thunderstorm,212
2012-8-17,73,64,55,56,52,49,89,65,41,30.05,30.01,29.97,10,10,10,12,8,,0.00,1,,334
2012-8-18,77,62,50,54,50,47,93,56,37,30.04,29.98,29.93,10,10,10,9,4,,0.00,1,,170
2012-8-19,77,66,57,55,52,48,87,61,37,29.99,29.95,29.92,10,10,10,12,4,,0.00,2,,349
2012-8-20,77,66,55,56,53,49,87,66,36,30.01,29.97,29.93,10,10,10,9,5,,0.00,1,Rain,304
2012-8-21,79,66,52,57,52,46,100,62,31,30.09,30.06,30.00,10,10,10,9,5,,0.00,1,,87
2012-8-22,84,68,54,56,51,44,84,54,25,30.12,30.07,30.03,10,10,10,12,5,,0.00,0,,146
2012-8-23,90,76,61,60,55,50,75,50,29,30.09,30.04,30.00,10,10,10,13,10,,0.00,0,,166
2012-8-24,91,77,63,63,58,56,78,55,31,30.04,29.99,29.94,10,10,10,9,8,,0.00,0,,159
2012-8-25,90,77,64,62,59,55,78,55,29,30.05,30.00,29.96,10,10,10,20,8,,0.00,0,,179
2012-8-26,82,74,66,73,70,63,100,96,67,30.09,30.01,29.94,10,6,0,17,8,,2.11,6,Fog-Rain-Thunderstorm,181
2012-8-27,86,77,68,72,67,53,100,83,32,30.12,30.03,29.95,10,8,1,15,9,,0.01,5,Rain,343
2012-8-28,88,72,59,64,59,55,100,62,34,30.13,30.07,30.02,10,10,10,9,5,,0.00,0,,60
2012-8-29,86,74,61,65,62,59,97,68,46,30.09,30.04,29.99,10,10,10,9,5,,0.00,0,,116
2012-8-30,90,76,63,62,59,57,81,60,34,30.05,30.01,29.96,10,10,10,12,9,,0.00,0,,170
2012-8-31,81,74,66,75,68,56,100,80,61,30.09,30.04,29.99,10,10,7,12,8,,0.04,0,Rain,180